sensor_id;sensor_type;location;lat;lon;timestamp;P1;durP1;ratioP1;P2;durP2;ratioP2
32812;SDS011;19162;48.254;11.454;2023-04-21T00:01:34;18.75;;;17.15;;
32812;SDS011;19162;48.254;11.454;2023-04-21T00:04:34;18.27;;;16.85;;
32812;SDS011;19162;48.254;11.454;2023-04-21T00:07:35;20.13;;;18.53;;
32812;SDS011;19162;48.254;11.454;2023-04-21T00:10:36;18.10;;;16.70;;
32812;SDS011;19162;48.254;11.454;2023-04-21T00:13:36;18.45;;;16.88;;
32812;SDS011;19162;48.254;11.454;2023-04-21T00:16:37;17.42;;;16.13;;
32812;SDS011;19162;48.254;11.454;2023-04-21T00:19:38;18.90;;;17.40;;
32812;SDS011;19162;48.254;11.454;2023-04-21T00:22:38;18.13;;;16.50;;
32812;SDS011;19162;48.254;11.454;2023-04-21T00:25:38;19.20;;;17.70;;
32812;SDS011;19162;48.254;11.454;2023-04-21T00:28:38;19.43;;;17.83;;
32812;SDS011;19162;48.254;11.454;2023-04-21T00:31:38;17.63;;;16.20;;
32812;SDS011;19162;48.254;11.454;2023-04-21T00:34:38;18.38;;;16.88;;
32812;SDS011;19162;48.254;11.454;2023-04-21T00:37:39;17.43;;;15.93;;
32812;SDS011;19162;48.254;11.454;2023-04-21T00:40:40;17.80;;;16.30;;
32812;SDS011;19162;48.254;11.454;2023-04-21T00:46:59;18.98;;;17.20;;
32812;SDS011;19162;48.254;11.454;2023-04-21T00:49:59;18.20;;;16.80;;
32812;SDS011;19162;48.254;11.454;2023-04-21T00:53:02;18.63;;;17.13;;
32812;SDS011;19162;48.254;11.454;2023-04-21T00:56:02;18.50;;;17.00;;
32812;SDS011;19162;48.254;11.454;2023-04-21T00:59:03;18.88;;;17.35;;
32812;SDS011;19162;48.254;11.454;2023-04-21T01:02:03;18.03;;;16.43;;
32812;SDS011;19162;48.254;11.454;2023-04-21T01:05:06;18.67;;;17.17;;
32812;SDS011;19162;48.254;11.454;2023-04-21T01:08:07;18.60;;;17.13;;
32812;SDS011;19162;48.254;11.454;2023-04-21T01:11:08;18.85;;;17.25;;
32812;SDS011;19162;48.254;11.454;2023-04-21T01:14:09;19.33;;;17.80;;
32812;SDS011;19162;48.254;11.454;2023-04-21T01:17:09;18.48;;;17.08;;
32812;SDS011;19162;48.254;11.454;2023-04-21T01:20:11;20.27;;;18.58;;
32812;SDS011;19162;48.254;11.454;2023-04-21T01:23:12;19.50;;;17.95;;
32812;SDS011;19162;48.254;11.454;2023-04-21T01:26:12;20.02;;;18.42;;
32812;SDS011;19162;48.254;11.454;2023-04-21T01:29:12;19.33;;;17.83;;
32812;SDS011;19162;48.254;11.454;2023-04-21T01:32:17;18.50;;;17.05;;
32812;SDS011;19162;48.254;11.454;2023-04-21T01:35:17;18.20;;;16.77;;
32812;SDS011;19162;48.254;11.454;2023-04-21T01:38:17;19.33;;;17.73;;
32812;SDS011;19162;48.254;11.454;2023-04-21T01:41:18;19.02;;;17.38;;
32812;SDS011;19162;48.254;11.454;2023-04-21T01:44:18;19.23;;;17.73;;
32812;SDS011;19162;48.254;11.454;2023-04-21T01:47:19;18.83;;;17.33;;
32812;SDS011;19162;48.254;11.454;2023-04-21T01:50:19;19.67;;;17.98;;
32812;SDS011;19162;48.254;11.454;2023-04-21T01:53:19;19.50;;;17.90;;
32812;SDS011;19162;48.254;11.454;2023-04-21T01:56:20;19.50;;;17.90;;
32812;SDS011;19162;48.254;11.454;2023-04-21T01:59:20;20.25;;;18.55;;
32812;SDS011;19162;48.254;11.454;2023-04-21T02:02:20;19.42;;;17.83;;
32812;SDS011;19162;48.254;11.454;2023-04-21T02:05:20;20.57;;;18.97;;
32812;SDS011;19162;48.254;11.454;2023-04-21T02:08:21;20.43;;;18.73;;
32812;SDS011;19162;48.254;11.454;2023-04-21T02:11:21;19.17;;;17.67;;
32812;SDS011;19162;48.254;11.454;2023-04-21T02:14:21;19.33;;;17.75;;
32812;SDS011;19162;48.254;11.454;2023-04-21T02:17:21;19.27;;;17.63;;
32812;SDS011;19162;48.254;11.454;2023-04-21T02:20:22;19.27;;;17.67;;
32812;SDS011;19162;48.254;11.454;2023-04-21T02:23:22;19.98;;;18.25;;
32812;SDS011;19162;48.254;11.454;2023-04-21T02:26:22;19.77;;;18.17;;
32812;SDS011;19162;48.254;11.454;2023-04-21T02:29:22;19.87;;;18.20;;
32812;SDS011;19162;48.254;11.454;2023-04-21T02:32:22;21.13;;;19.30;;
32812;SDS011;19162;48.254;11.454;2023-04-21T02:35:23;20.13;;;18.52;;
32812;SDS011;19162;48.254;11.454;2023-04-21T02:38:23;21.47;;;19.67;;
32812;SDS011;19162;48.254;11.454;2023-04-21T02:41:23;19.33;;;17.83;;
32812;SDS011;19162;48.254;11.454;2023-04-21T02:44:23;18.80;;;17.30;;
32812;SDS011;19162;48.254;11.454;2023-04-21T02:47:24;19.97;;;18.33;;
32812;SDS011;19162;48.254;11.454;2023-04-21T02:50:24;19.38;;;17.70;;
32812;SDS011;19162;48.254;11.454;2023-04-21T02:53:25;19.53;;;17.93;;
32812;SDS011;19162;48.254;11.454;2023-04-21T02:56:25;20.80;;;19.10;;
32812;SDS011;19162;48.254;11.454;2023-04-21T02:59:25;20.33;;;18.52;;
32812;SDS011;19162;48.254;11.454;2023-04-21T03:02:25;19.03;;;17.47;;
32812;SDS011;19162;48.254;11.454;2023-04-21T03:05:26;19.67;;;18.05;;
32812;SDS011;19162;48.254;11.454;2023-04-21T03:08:26;19.43;;;17.83;;
32812;SDS011;19162;48.254;11.454;2023-04-21T03:11:26;20.85;;;19.15;;
32812;SDS011;19162;48.254;11.454;2023-04-21T03:14:26;19.40;;;17.73;;
32812;SDS011;19162;48.254;11.454;2023-04-21T03:17:27;20.38;;;18.77;;
32812;SDS011;19162;48.254;11.454;2023-04-21T03:20:27;20.37;;;18.57;;
32812;SDS011;19162;48.254;11.454;2023-04-21T03:23:27;19.87;;;18.07;;
32812;SDS011;19162;48.254;11.454;2023-04-21T03:26:27;20.95;;;19.20;;
32812;SDS011;19162;48.254;11.454;2023-04-21T03:29:27;20.83;;;19.03;;
32812;SDS011;19162;48.254;11.454;2023-04-21T03:32:27;20.55;;;18.70;;
32812;SDS011;19162;48.254;11.454;2023-04-21T03:35:28;19.65;;;18.02;;
32812;SDS011;19162;48.254;11.454;2023-04-21T03:38:29;19.35;;;17.75;;
32812;SDS011;19162;48.254;11.454;2023-04-21T03:41:29;19.30;;;17.63;;
32812;SDS011;19162;48.254;11.454;2023-04-21T03:44:30;20.27;;;18.60;;
32812;SDS011;19162;48.254;11.454;2023-04-21T03:47:30;19.23;;;17.65;;
32812;SDS011;19162;48.254;11.454;2023-04-21T03:50:30;21.42;;;19.65;;
32812;SDS011;19162;48.254;11.454;2023-04-21T03:53:30;20.70;;;18.92;;
32812;SDS011;19162;48.254;11.454;2023-04-21T03:56:30;19.40;;;17.77;;
32812;SDS011;19162;48.254;11.454;2023-04-21T03:59:31;20.90;;;19.17;;
32812;SDS011;19162;48.254;11.454;2023-04-21T04:02:31;22.23;;;20.30;;
32812;SDS011;19162;48.254;11.454;2023-04-21T04:05:31;20.30;;;18.60;;
32812;SDS011;19162;48.254;11.454;2023-04-21T04:08:31;19.30;;;17.70;;
32812;SDS011;19162;48.254;11.454;2023-04-21T04:11:31;20.77;;;19.00;;
32812;SDS011;19162;48.254;11.454;2023-04-21T04:14:32;19.93;;;18.27;;
32812;SDS011;19162;48.254;11.454;2023-04-21T04:17:32;19.50;;;17.97;;
32812;SDS011;19162;48.254;11.454;2023-04-21T04:20:32;20.42;;;18.63;;
32812;SDS011;19162;48.254;11.454;2023-04-21T04:23:33;20.97;;;19.10;;
32812;SDS011;19162;48.254;11.454;2023-04-21T04:26:33;17.60;;;16.20;;
32812;SDS011;19162;48.254;11.454;2023-04-21T04:29:34;21.10;;;19.27;;
32812;SDS011;19162;48.254;11.454;2023-04-21T04:32:35;19.95;;;18.23;;
32812;SDS011;19162;48.254;11.454;2023-04-21T04:35:38;21.85;;;20.05;;
32812;SDS011;19162;48.254;11.454;2023-04-21T04:38:38;18.63;;;17.00;;
32812;SDS011;19162;48.254;11.454;2023-04-21T04:41:39;21.38;;;19.58;;
32812;SDS011;19162;48.254;11.454;2023-04-21T04:44:40;22.85;;;20.73;;
32812;SDS011;19162;48.254;11.454;2023-04-21T04:47:40;21.95;;;19.95;;
32812;SDS011;19162;48.254;11.454;2023-04-21T04:50:40;4.88;;;3.65;;
32812;SDS011;19162;48.254;11.454;2023-04-21T04:53:41;3.57;;;2.57;;
32812;SDS011;19162;48.254;11.454;2023-04-21T04:56:41;2.90;;;2.40;;
32812;SDS011;19162;48.254;11.454;2023-04-21T04:59:41;2.83;;;2.38;;
32812;SDS011;19162;48.254;11.454;2023-04-21T05:02:41;10.93;;;10.00;;
32812;SDS011;19162;48.254;11.454;2023-04-21T05:05:42;3.50;;;2.63;;
32812;SDS011;19162;48.254;11.454;2023-04-21T05:08:42;7.33;;;3.20;;
32812;SDS011;19162;48.254;11.454;2023-04-21T05:11:42;3.70;;;2.10;;
32812;SDS011;19162;48.254;11.454;2023-04-21T05:14:42;5.70;;;2.60;;
32812;SDS011;19162;48.254;11.454;2023-04-21T05:17:42;4.38;;;2.88;;
32812;SDS011;19162;48.254;11.454;2023-04-21T05:20:42;2.58;;;2.17;;
32812;SDS011;19162;48.254;11.454;2023-04-21T05:23:43;4.22;;;2.53;;
32812;SDS011;19162;48.254;11.454;2023-04-21T05:26:43;2.80;;;2.30;;
32812;SDS011;19162;48.254;11.454;2023-04-21T05:29:43;3.00;;;2.33;;
32812;SDS011;19162;48.254;11.454;2023-04-21T05:32:43;3.47;;;2.30;;
32812;SDS011;19162;48.254;11.454;2023-04-21T05:35:43;2.20;;;2.00;;
32812;SDS011;19162;48.254;11.454;2023-04-21T05:38:44;3.95;;;2.30;;
32812;SDS011;19162;48.254;11.454;2023-04-21T05:41:44;2.83;;;2.10;;
32812;SDS011;19162;48.254;11.454;2023-04-21T05:44:44;20.50;;;18.57;;
32812;SDS011;19162;48.254;11.454;2023-04-21T05:47:44;20.40;;;18.55;;
32812;SDS011;19162;48.254;11.454;2023-04-21T05:50:45;20.97;;;18.77;;
32812;SDS011;19162;48.254;11.454;2023-04-21T05:53:45;11.67;;;10.60;;
32812;SDS011;19162;48.254;11.454;2023-04-21T05:56:45;21.00;;;19.27;;
32812;SDS011;19162;48.254;11.454;2023-04-21T05:59:47;20.58;;;18.80;;
32812;SDS011;19162;48.254;11.454;2023-04-21T06:02:47;22.03;;;20.13;;
32812;SDS011;19162;48.254;11.454;2023-04-21T06:05:51;21.92;;;20.13;;
32812;SDS011;19162;48.254;11.454;2023-04-21T06:08:52;23.88;;;21.88;;
32812;SDS011;19162;48.254;11.454;2023-04-21T06:11:52;22.63;;;20.93;;
32812;SDS011;19162;48.254;11.454;2023-04-21T06:14:52;23.60;;;21.55;;
32812;SDS011;19162;48.254;11.454;2023-04-21T06:17:56;22.38;;;20.65;;
32812;SDS011;19162;48.254;11.454;2023-04-21T06:20:56;21.47;;;19.67;;
32812;SDS011;19162;48.254;11.454;2023-04-21T06:23:57;24.10;;;22.17;;
32812;SDS011;19162;48.254;11.454;2023-04-21T06:26:57;23.73;;;21.88;;
32812;SDS011;19162;48.254;11.454;2023-04-21T06:29:57;25.20;;;23.13;;
32812;SDS011;19162;48.254;11.454;2023-04-21T06:32:57;24.97;;;22.93;;
32812;SDS011;19162;48.254;11.454;2023-04-21T06:35:57;19.77;;;18.17;;
32812;SDS011;19162;48.254;11.454;2023-04-21T06:38:58;26.07;;;23.67;;
32812;SDS011;19162;48.254;11.454;2023-04-21T06:41:58;24.77;;;22.67;;
32812;SDS011;19162;48.254;11.454;2023-04-21T06:44:58;26.07;;;23.60;;
32812;SDS011;19162;48.254;11.454;2023-04-21T06:47:58;25.27;;;23.17;;
32812;SDS011;19162;48.254;11.454;2023-04-21T06:50:59;25.05;;;22.92;;
32812;SDS011;19162;48.254;11.454;2023-04-21T06:54:00;25.10;;;23.10;;
32812;SDS011;19162;48.254;11.454;2023-04-21T06:57:00;25.00;;;22.63;;
32812;SDS011;19162;48.254;11.454;2023-04-21T07:00:01;25.83;;;23.63;;
32812;SDS011;19162;48.254;11.454;2023-04-21T07:03:01;24.53;;;22.33;;
32812;SDS011;19162;48.254;11.454;2023-04-21T07:06:01;24.93;;;22.67;;
32812;SDS011;19162;48.254;11.454;2023-04-21T07:09:02;24.87;;;22.77;;
32812;SDS011;19162;48.254;11.454;2023-04-21T07:12:02;23.87;;;21.67;;
32812;SDS011;19162;48.254;11.454;2023-04-21T07:15:02;26.70;;;24.13;;
32812;SDS011;19162;48.254;11.454;2023-04-21T07:18:02;23.48;;;21.25;;
32812;SDS011;19162;48.254;11.454;2023-04-21T07:21:03;25.03;;;22.93;;
32812;SDS011;19162;48.254;11.454;2023-04-21T07:24:03;25.17;;;23.10;;
32812;SDS011;19162;48.254;11.454;2023-04-21T07:27:04;24.98;;;22.80;;
32812;SDS011;19162;48.254;11.454;2023-04-21T07:30:05;23.25;;;21.08;;
32812;SDS011;19162;48.254;11.454;2023-04-21T07:33:05;23.35;;;21.35;;
32812;SDS011;19162;48.254;11.454;2023-04-21T07:36:05;22.73;;;20.73;;
32812;SDS011;19162;48.254;11.454;2023-04-21T07:39:06;24.38;;;22.23;;
32812;SDS011;19162;48.254;11.454;2023-04-21T07:42:06;24.10;;;22.00;;
32812;SDS011;19162;48.254;11.454;2023-04-21T07:45:07;24.33;;;22.13;;
32812;SDS011;19162;48.254;11.454;2023-04-21T07:48:07;24.30;;;21.02;;
32812;SDS011;19162;48.254;11.454;2023-04-21T07:51:08;21.87;;;20.07;;
32812;SDS011;19162;48.254;11.454;2023-04-21T07:54:08;21.33;;;19.40;;
32812;SDS011;19162;48.254;11.454;2023-04-21T07:57:08;21.17;;;19.37;;
32812;SDS011;19162;48.254;11.454;2023-04-21T08:00:08;22.67;;;20.67;;
32812;SDS011;19162;48.254;11.454;2023-04-21T08:03:09;24.92;;;22.42;;
32812;SDS011;19162;48.254;11.454;2023-04-21T08:06:09;20.83;;;19.13;;
32812;SDS011;19162;48.254;11.454;2023-04-21T08:09:09;21.33;;;19.60;;
32812;SDS011;19162;48.254;11.454;2023-04-21T08:12:09;20.73;;;18.98;;
32812;SDS011;19162;48.254;11.454;2023-04-21T08:15:10;20.87;;;19.17;;
32812;SDS011;19162;48.254;11.454;2023-04-21T08:18:11;21.58;;;19.75;;
32812;SDS011;19162;48.254;11.454;2023-04-21T08:21:11;21.20;;;19.17;;
32812;SDS011;19162;48.254;11.454;2023-04-21T08:24:12;20.67;;;18.98;;
32812;SDS011;19162;48.254;11.454;2023-04-21T08:27:12;7.47;;;6.87;;
32812;SDS011;19162;48.254;11.454;2023-04-21T08:30:13;3.30;;;2.65;;
32812;SDS011;19162;48.254;11.454;2023-04-21T08:33:13;20.65;;;18.98;;
32812;SDS011;19162;48.254;11.454;2023-04-21T08:36:13;20.43;;;18.63;;
32812;SDS011;19162;48.254;11.454;2023-04-21T08:39:13;21.73;;;19.67;;
32812;SDS011;19162;48.254;11.454;2023-04-21T08:42:17;20.33;;;18.60;;
32812;SDS011;19162;48.254;11.454;2023-04-21T08:48:18;20.98;;;19.10;;
32812;SDS011;19162;48.254;11.454;2023-04-21T08:51:21;20.33;;;18.70;;
32812;SDS011;19162;48.254;11.454;2023-04-21T08:54:22;20.95;;;19.17;;
32812;SDS011;19162;48.254;11.454;2023-04-21T08:57:22;19.15;;;17.35;;
32812;SDS011;19162;48.254;11.454;2023-04-21T09:00:23;17.58;;;15.93;;
32812;SDS011;19162;48.254;11.454;2023-04-21T09:03:23;16.80;;;15.40;;
32812;SDS011;19162;48.254;11.454;2023-04-21T09:06:24;17.73;;;16.20;;
32812;SDS011;19162;48.254;11.454;2023-04-21T09:12:53;11.98;;;10.98;;
32812;SDS011;19162;48.254;11.454;2023-04-21T09:15:53;19.35;;;17.65;;
32812;SDS011;19162;48.254;11.454;2023-04-21T09:18:53;17.83;;;16.43;;
32812;SDS011;19162;48.254;11.454;2023-04-21T09:21:53;16.93;;;15.47;;
32812;SDS011;19162;48.254;11.454;2023-04-21T09:24:57;16.57;;;15.10;;
32812;SDS011;19162;48.254;11.454;2023-04-21T09:27:59;15.13;;;13.82;;
32812;SDS011;19162;48.254;11.454;2023-04-21T09:30:59;16.52;;;15.02;;
32812;SDS011;19162;48.254;11.454;2023-04-21T09:33:59;16.58;;;15.27;;
32812;SDS011;19162;48.254;11.454;2023-04-21T09:37:01;19.20;;;17.60;;
32812;SDS011;19162;48.254;11.454;2023-04-21T09:40:02;19.63;;;18.02;;
32812;SDS011;19162;48.254;11.454;2023-04-21T09:43:02;15.88;;;14.60;;
32812;SDS011;19162;48.254;11.454;2023-04-21T09:46:02;19.70;;;18.07;;
32812;SDS011;19162;48.254;11.454;2023-04-21T09:49:04;19.73;;;18.08;;
32812;SDS011;19162;48.254;11.454;2023-04-21T09:52:05;18.27;;;16.70;;
32812;SDS011;19162;48.254;11.454;2023-04-21T09:55:08;17.95;;;16.52;;
32812;SDS011;19162;48.254;11.454;2023-04-21T09:58:09;15.27;;;14.07;;
32812;SDS011;19162;48.254;11.454;2023-04-21T10:01:12;17.40;;;15.77;;
32812;SDS011;19162;48.254;11.454;2023-04-21T10:04:13;15.85;;;14.52;;
32812;SDS011;19162;48.254;11.454;2023-04-21T10:07:13;16.80;;;15.40;;
32812;SDS011;19162;48.254;11.454;2023-04-21T10:10:19;15.07;;;13.88;;
32812;SDS011;19162;48.254;11.454;2023-04-21T10:13:20;10.30;;;9.40;;
32812;SDS011;19162;48.254;11.454;2023-04-21T10:16:20;15.50;;;14.10;;
32812;SDS011;19162;48.254;11.454;2023-04-21T10:19:25;15.70;;;14.18;;
32812;SDS011;19162;48.254;11.454;2023-04-21T10:22:30;13.10;;;12.07;;
32812;SDS011;19162;48.254;11.454;2023-04-21T10:25:31;15.35;;;14.15;;
32812;SDS011;19162;48.254;11.454;2023-04-21T10:34:48;19.58;;;18.05;;
32812;SDS011;19162;48.254;11.454;2023-04-21T10:37:48;21.57;;;19.50;;
32812;SDS011;19162;48.254;11.454;2023-04-21T10:40:49;22.13;;;20.27;;
32812;SDS011;19162;48.254;11.454;2023-04-21T10:43:49;14.55;;;13.35;;
32812;SDS011;19162;48.254;11.454;2023-04-21T10:46:50;18.33;;;16.63;;
32812;SDS011;19162;48.254;11.454;2023-04-21T10:49:51;20.85;;;19.13;;
32812;SDS011;19162;48.254;11.454;2023-04-21T10:52:52;20.42;;;18.83;;
32812;SDS011;19162;48.254;11.454;2023-04-21T10:55:53;20.55;;;18.95;;
32812;SDS011;19162;48.254;11.454;2023-04-21T10:58:53;14.10;;;12.90;;
32812;SDS011;19162;48.254;11.454;2023-04-21T11:01:53;13.35;;;12.30;;
32812;SDS011;19162;48.254;11.454;2023-04-21T11:04:53;8.47;;;7.63;;
32812;SDS011;19162;48.254;11.454;2023-04-21T11:11:03;18.52;;;16.98;;
32812;SDS011;19162;48.254;11.454;2023-04-21T11:14:03;18.77;;;17.30;;
32812;SDS011;19162;48.254;11.454;2023-04-21T11:17:04;19.03;;;17.33;;
32812;SDS011;19162;48.254;11.454;2023-04-21T11:20:05;17.25;;;15.90;;
32812;SDS011;19162;48.254;11.454;2023-04-21T11:23:05;17.98;;;16.48;;
32812;SDS011;19162;48.254;11.454;2023-04-21T11:26:05;17.67;;;16.08;;
32812;SDS011;19162;48.254;11.454;2023-04-21T11:29:06;16.87;;;15.57;;
32812;SDS011;19162;48.254;11.454;2023-04-21T11:32:07;18.67;;;17.27;;
32812;SDS011;19162;48.254;11.454;2023-04-21T11:35:07;17.80;;;16.30;;
32812;SDS011;19162;48.254;11.454;2023-04-21T11:38:08;14.80;;;13.60;;
32812;SDS011;19162;48.254;11.454;2023-04-21T11:41:09;13.25;;;12.00;;
32812;SDS011;19162;48.254;11.454;2023-04-21T11:44:10;17.10;;;15.68;;
32812;SDS011;19162;48.254;11.454;2023-04-21T11:47:14;16.75;;;15.38;;
32812;SDS011;19162;48.254;11.454;2023-04-21T11:50:28;15.57;;;14.07;;
32812;SDS011;19162;48.254;11.454;2023-04-21T11:53:29;16.25;;;14.82;;
32812;SDS011;19162;48.254;11.454;2023-04-21T11:56:32;15.82;;;14.50;;
32812;SDS011;19162;48.254;11.454;2023-04-21T11:59:33;18.42;;;16.83;;
32812;SDS011;19162;48.254;11.454;2023-04-21T12:02:33;17.43;;;16.03;;
32812;SDS011;19162;48.254;11.454;2023-04-21T12:05:34;15.25;;;13.93;;
32812;SDS011;19162;48.254;11.454;2023-04-21T12:08:35;13.20;;;11.15;;
32812;SDS011;19162;48.254;11.454;2023-04-21T12:11:35;15.07;;;13.73;;
32812;SDS011;19162;48.254;11.454;2023-04-21T12:14:35;14.63;;;13.53;;
32812;SDS011;19162;48.254;11.454;2023-04-21T12:17:36;15.38;;;14.18;;
32812;SDS011;19162;48.254;11.454;2023-04-21T12:20:37;16.02;;;14.65;;
32812;SDS011;19162;48.254;11.454;2023-04-21T12:23:37;13.27;;;12.10;;
32812;SDS011;19162;48.254;11.454;2023-04-21T12:26:38;14.35;;;13.25;;
32812;SDS011;19162;48.254;11.454;2023-04-21T12:29:38;14.05;;;12.95;;
32812;SDS011;19162;48.254;11.454;2023-04-21T12:32:38;12.63;;;11.60;;
32812;SDS011;19162;48.254;11.454;2023-04-21T12:35:39;12.67;;;11.60;;
32812;SDS011;19162;48.254;11.454;2023-04-21T12:38:39;10.90;;;10.10;;
32812;SDS011;19162;48.254;11.454;2023-04-21T12:41:39;13.60;;;12.40;;
32812;SDS011;19162;48.254;11.454;2023-04-21T12:44:39;13.93;;;11.73;;
32812;SDS011;19162;48.254;11.454;2023-04-21T12:47:40;14.50;;;13.15;;
32812;SDS011;19162;48.254;11.454;2023-04-21T12:50:41;10.60;;;9.73;;
32812;SDS011;19162;48.254;11.454;2023-04-21T12:53:41;9.45;;;8.65;;
32812;SDS011;19162;48.254;11.454;2023-04-21T12:56:41;7.88;;;7.18;;
32812;SDS011;19162;48.254;11.454;2023-04-21T12:59:42;8.18;;;7.47;;
32812;SDS011;19162;48.254;11.454;2023-04-21T13:02:42;8.70;;;8.00;;
32812;SDS011;19162;48.254;11.454;2023-04-21T13:05:42;9.43;;;8.63;;
32812;SDS011;19162;48.254;11.454;2023-04-21T13:08:43;8.05;;;7.45;;
32812;SDS011;19162;48.254;11.454;2023-04-21T13:11:43;7.07;;;6.57;;
32812;SDS011;19162;48.254;11.454;2023-04-21T13:14:43;6.10;;;5.68;;
32812;SDS011;19162;48.254;11.454;2023-04-21T13:17:43;3.93;;;3.63;;
32812;SDS011;19162;48.254;11.454;2023-04-21T13:20:43;4.10;;;3.80;;
32812;SDS011;19162;48.254;11.454;2023-04-21T13:23:44;2.42;;;2.22;;
32812;SDS011;19162;48.254;11.454;2023-04-21T13:26:44;2.43;;;2.30;;
32812;SDS011;19162;48.254;11.454;2023-04-21T13:29:44;6.00;;;5.50;;
32812;SDS011;19162;48.254;11.454;2023-04-21T13:32:47;4.80;;;4.40;;
32812;SDS011;19162;48.254;11.454;2023-04-21T13:35:47;4.68;;;4.38;;
32812;SDS011;19162;48.254;11.454;2023-04-21T13:38:48;7.95;;;7.25;;
32812;SDS011;19162;48.254;11.454;2023-04-21T13:41:49;5.90;;;5.47;;
32812;SDS011;19162;48.254;11.454;2023-04-21T13:44:50;4.93;;;4.53;;
32812;SDS011;19162;48.254;11.454;2023-04-21T13:47:50;6.32;;;5.82;;
32812;SDS011;19162;48.254;11.454;2023-04-21T13:50:51;6.93;;;6.38;;
32812;SDS011;19162;48.254;11.454;2023-04-21T13:53:51;5.30;;;3.47;;
32812;SDS011;19162;48.254;11.454;2023-04-21T13:56:51;4.63;;;3.33;;
32812;SDS011;19162;48.254;11.454;2023-04-21T13:59:52;4.83;;;2.73;;
32812;SDS011;19162;48.254;11.454;2023-04-21T14:02:53;5.57;;;3.25;;
32812;SDS011;19162;48.254;11.454;2023-04-21T14:05:54;6.20;;;5.70;;
32812;SDS011;19162;48.254;11.454;2023-04-21T14:08:54;6.13;;;5.53;;
32812;SDS011;19162;48.254;11.454;2023-04-21T14:11:54;5.80;;;5.30;;
32812;SDS011;19162;48.254;11.454;2023-04-21T14:14:54;6.25;;;5.75;;
32812;SDS011;19162;48.254;11.454;2023-04-21T14:17:55;6.93;;;6.43;;
32812;SDS011;19162;48.254;11.454;2023-04-21T14:20:55;6.40;;;5.90;;
32812;SDS011;19162;48.254;11.454;2023-04-21T14:23:56;6.80;;;6.30;;
32812;SDS011;19162;48.254;11.454;2023-04-21T14:26:56;6.70;;;6.20;;
32812;SDS011;19162;48.254;11.454;2023-04-21T14:29:56;6.65;;;6.05;;
32812;SDS011;19162;48.254;11.454;2023-04-21T14:32:59;7.25;;;6.65;;
32812;SDS011;19162;48.254;11.454;2023-04-21T14:35:59;6.15;;;5.55;;
32812;SDS011;19162;48.254;11.454;2023-04-21T14:39:00;6.03;;;5.33;;
32812;SDS011;19162;48.254;11.454;2023-04-21T14:42:00;5.03;;;4.63;;
32812;SDS011;19162;48.254;11.454;2023-04-21T14:45:00;3.95;;;3.70;;
32812;SDS011;19162;48.254;11.454;2023-04-21T14:48:00;3.00;;;2.70;;
32812;SDS011;19162;48.254;11.454;2023-04-21T14:51:01;2.45;;;2.25;;
32812;SDS011;19162;48.254;11.454;2023-04-21T14:54:01;2.10;;;1.90;;
32812;SDS011;19162;48.254;11.454;2023-04-21T14:57:01;1.90;;;1.80;;
32812;SDS011;19162;48.254;11.454;2023-04-21T15:00:01;2.07;;;1.87;;
32812;SDS011;19162;48.254;11.454;2023-04-21T15:03:01;2.03;;;1.93;;
32812;SDS011;19162;48.254;11.454;2023-04-21T15:06:02;2.23;;;2.10;;
32812;SDS011;19162;48.254;11.454;2023-04-21T15:09:02;2.70;;;2.50;;
32812;SDS011;19162;48.254;11.454;2023-04-21T15:12:03;2.27;;;2.17;;
32812;SDS011;19162;48.254;11.454;2023-04-21T15:15:06;2.97;;;2.78;;
32812;SDS011;19162;48.254;11.454;2023-04-21T15:18:07;2.10;;;2.00;;
32812;SDS011;19162;48.254;11.454;2023-04-21T15:21:07;2.92;;;2.72;;
32812;SDS011;19162;48.254;11.454;2023-04-21T15:24:07;2.97;;;2.77;;
32812;SDS011;19162;48.254;11.454;2023-04-21T15:27:09;2.92;;;2.63;;
32812;SDS011;19162;48.254;11.454;2023-04-21T15:30:09;2.67;;;2.47;;
32812;SDS011;19162;48.254;11.454;2023-04-21T15:33:09;2.33;;;2.13;;
32812;SDS011;19162;48.254;11.454;2023-04-21T15:36:10;2.75;;;2.55;;
32812;SDS011;19162;48.254;11.454;2023-04-21T15:39:10;5.60;;;1.97;;
32812;SDS011;19162;48.254;11.454;2023-04-21T15:42:12;3.28;;;2.17;;
32812;SDS011;19162;48.254;11.454;2023-04-21T15:45:13;2.13;;;1.93;;
32812;SDS011;19162;48.254;11.454;2023-04-21T15:48:16;2.63;;;1.80;;
32812;SDS011;19162;48.254;11.454;2023-04-21T15:51:18;2.90;;;2.05;;
32812;SDS011;19162;48.254;11.454;2023-04-21T15:54:18;2.20;;;1.80;;
32812;SDS011;19162;48.254;11.454;2023-04-21T15:57:18;2.38;;;2.17;;
32812;SDS011;19162;48.254;11.454;2023-04-21T16:00:18;2.35;;;2.10;;
32812;SDS011;19162;48.254;11.454;2023-04-21T16:03:19;4.50;;;1.90;;
32812;SDS011;19162;48.254;11.454;2023-04-21T16:06:20;1.70;;;1.60;;
32812;SDS011;19162;48.254;11.454;2023-04-21T16:09:20;1.92;;;1.83;;
32812;SDS011;19162;48.254;11.454;2023-04-21T16:12:20;2.67;;;2.00;;
32812;SDS011;19162;48.254;11.454;2023-04-21T16:15:21;2.60;;;2.40;;
32812;SDS011;19162;48.254;11.454;2023-04-21T16:18:21;2.30;;;2.10;;
32812;SDS011;19162;48.254;11.454;2023-04-21T16:21:21;2.43;;;2.33;;
32812;SDS011;19162;48.254;11.454;2023-04-21T16:24:21;3.33;;;2.13;;
32812;SDS011;19162;48.254;11.454;2023-04-21T16:27:22;3.57;;;2.17;;
32812;SDS011;19162;48.254;11.454;2023-04-21T16:30:22;2.53;;;2.10;;
32812;SDS011;19162;48.254;11.454;2023-04-21T16:33:22;1.73;;;1.60;;
32812;SDS011;19162;48.254;11.454;2023-04-21T16:36:22;1.60;;;1.50;;
32812;SDS011;19162;48.254;11.454;2023-04-21T16:39:23;1.83;;;1.60;;
32812;SDS011;19162;48.254;11.454;2023-04-21T16:42:23;2.00;;;1.80;;
32812;SDS011;19162;48.254;11.454;2023-04-21T16:45:23;1.83;;;1.73;;
32812;SDS011;19162;48.254;11.454;2023-04-21T16:48:23;1.67;;;1.57;;
32812;SDS011;19162;48.254;11.454;2023-04-21T16:51:23;1.45;;;1.35;;
32812;SDS011;19162;48.254;11.454;2023-04-21T16:54:25;2.15;;;1.98;;
32812;SDS011;19162;48.254;11.454;2023-04-21T16:57:25;2.30;;;2.07;;
32812;SDS011;19162;48.254;11.454;2023-04-21T17:00:27;3.40;;;3.10;;
32812;SDS011;19162;48.254;11.454;2023-04-21T17:03:29;2.90;;;2.55;;
32812;SDS011;19162;48.254;11.454;2023-04-21T17:06:29;3.60;;;2.43;;
32812;SDS011;19162;48.254;11.454;2023-04-21T17:09:30;2.17;;;2.08;;
32812;SDS011;19162;48.254;11.454;2023-04-21T17:12:30;2.20;;;2.10;;
32812;SDS011;19162;48.254;11.454;2023-04-21T17:15:31;3.30;;;2.23;;
32812;SDS011;19162;48.254;11.454;2023-04-21T17:18:32;2.35;;;2.15;;
32812;SDS011;19162;48.254;11.454;2023-04-21T17:21:32;2.85;;;2.17;;
32812;SDS011;19162;48.254;11.454;2023-04-21T17:24:32;1.75;;;1.65;;
32812;SDS011;19162;48.254;11.454;2023-04-21T17:27:33;2.45;;;2.25;;
32812;SDS011;19162;48.254;11.454;2023-04-21T17:30:33;3.20;;;2.13;;
32812;SDS011;19162;48.254;11.454;2023-04-21T17:33:35;2.75;;;2.55;;
32812;SDS011;19162;48.254;11.454;2023-04-21T17:36:35;5.20;;;2.38;;
32812;SDS011;19162;48.254;11.454;2023-04-21T17:39:35;2.80;;;2.20;;
32812;SDS011;19162;48.254;11.454;2023-04-21T17:42:36;3.92;;;2.45;;
32812;SDS011;19162;48.254;11.454;2023-04-21T17:45:36;2.97;;;1.83;;
32812;SDS011;19162;48.254;11.454;2023-04-21T17:48:37;2.67;;;2.47;;
32812;SDS011;19162;48.254;11.454;2023-04-21T17:51:38;2.30;;;2.10;;